createdAt,value
2022-12-04T00:03:41.671Z,1009.50
2022-12-04T00:08:41.816Z,1009.43
2022-12-04T00:13:40.961Z,1009.55
2022-12-04T00:18:42.061Z,1009.54
2022-12-04T00:23:43.194Z,1009.57
2022-12-04T00:28:44.285Z,1009.48
2022-12-04T00:33:45.421Z,1009.52
2022-12-04T00:38:48.526Z,1009.56
2022-12-04T00:43:47.648Z,1009.49
2022-12-04T00:48:49.781Z,1009.44
2022-12-04T00:53:48.879Z,1009.33
2022-12-04T00:58:50.064Z,1009.34
2022-12-04T01:03:53.335Z,1009.32
2022-12-04T01:08:52.448Z,1009.34
2022-12-04T01:13:53.583Z,1009.30
2022-12-04T01:18:54.663Z,1009.36
2022-12-04T01:23:56.781Z,1009.35
2022-12-04T01:28:55.877Z,1009.25
2022-12-04T01:33:56.998Z,1009.39
2022-12-04T01:38:58.091Z,1009.24
2022-12-04T01:44:00.208Z,1009.30
2022-12-04T01:48:59.358Z,1009.27
2022-12-04T01:54:00.492Z,1009.26
2022-12-04T01:59:01.642Z,1009.27
2022-12-04T02:04:02.794Z,1009.19
2022-12-04T02:09:02.936Z,1009.22
2022-12-04T02:14:04.115Z,1009.21
2022-12-04T02:19:05.380Z,1009.23
2022-12-04T02:24:07.491Z,1009.30
2022-12-04T02:29:06.575Z,1009.33
2022-12-04T02:34:07.714Z,1009.36
2022-12-04T02:39:08.842Z,1009.28
2022-12-04T02:44:10.006Z,1009.34
2022-12-04T02:49:12.108Z,1009.36
2022-12-04T02:54:12.210Z,1009.27
2022-12-04T02:59:11.351Z,1009.14
2022-12-04T03:04:13.487Z,1009.16
2022-12-04T03:09:12.610Z,1009.04
2022-12-04T03:14:13.789Z,1009.03
2022-12-04T03:19:15.969Z,1009.03
2022-12-04T03:24:15.107Z,1008.97
2022-12-04T03:29:16.245Z,1009.05
2022-12-04T03:34:17.356Z,1009.03
2022-12-04T03:39:19.497Z,1009.05
2022-12-04T03:44:19.621Z,1009.10
2022-12-04T03:49:18.754Z,1009.20
2022-12-04T03:54:19.880Z,1009.18
2022-12-04T03:59:21.035Z,1009.12
2022-12-04T04:04:22.154Z,1009.03
2022-12-04T04:09:23.313Z,1008.94
2022-12-04T04:14:25.430Z,1008.93
2022-12-04T04:19:24.620Z,1008.97
2022-12-04T04:24:25.763Z,1008.91
2022-12-04T04:29:26.896Z,1008.94
2022-12-04T04:34:28.008Z,1008.94
2022-12-04T04:39:29.168Z,1008.92
2022-12-04T04:44:30.322Z,1008.93
2022-12-04T04:49:32.540Z,1008.84
2022-12-04T04:54:31.701Z,1008.90
2022-12-04T04:59:32.844Z,1008.92
2022-12-04T05:04:33.972Z,1009.04
2022-12-04T05:09:41.232Z,1008.96
2022-12-04T05:14:34.651Z,1009.06
2022-12-04T05:19:36.776Z,1009.08
2022-12-04T05:24:35.900Z,1009.03
2022-12-04T05:29:37.032Z,1009.03
2022-12-04T05:34:38.168Z,1009.04
2022-12-04T05:39:41.296Z,1009.06
2022-12-04T05:44:40.411Z,1009.06
2022-12-04T05:49:42.709Z,1009.05
2022-12-04T05:54:41.813Z,1009.04
2022-12-04T05:59:42.938Z,1009.06
2022-12-04T06:04:44.065Z,1009.12
2022-12-04T06:09:45.176Z,1009.22
2022-12-04T06:14:46.305Z,1009.22
2022-12-04T06:19:47.495Z,1009.19
2022-12-04T06:24:49.626Z,1009.27
2022-12-04T06:29:48.761Z,1009.27
2022-12-04T06:34:50.887Z,1009.26
2022-12-04T06:39:50.048Z,1009.28
2022-12-04T06:44:51.164Z,1009.21
2022-12-04T06:49:52.266Z,1009.13
2022-12-04T06:54:54.376Z,1009.22
2022-12-04T06:59:53.804Z,1009.13
2022-12-04T07:04:53.187Z,1009.07
2022-12-04T07:09:54.783Z,1009.14
2022-12-04T07:14:54.153Z,1009.20
2022-12-04T07:19:55.616Z,1009.19
2022-12-04T07:24:56.034Z,1009.18
2022-12-04T07:29:56.384Z,1009.25
2022-12-04T07:34:55.643Z,1009.23
2022-12-04T07:39:57.081Z,1009.23
2022-12-04T07:44:56.472Z,1009.18
2022-12-04T07:49:57.984Z,1009.23
2022-12-04T07:54:57.707Z,1009.28
2022-12-04T07:59:58.127Z,1009.35
2022-12-04T08:04:57.379Z,1009.35
2022-12-04T08:09:58.662Z,1009.39
2022-12-04T08:15:00.876Z,1009.46
2022-12-04T08:20:00.003Z,1009.42
2022-12-04T08:25:01.157Z,1009.41
2022-12-04T08:30:02.296Z,1009.41
2022-12-04T08:35:04.451Z,1009.42
2022-12-04T08:40:03.626Z,1009.44
2022-12-04T08:45:04.926Z,1009.45
2022-12-04T08:50:05.167Z,1009.41
2022-12-04T08:55:06.315Z,1009.38
2022-12-04T09:00:08.668Z,1009.51
2022-12-04T09:05:07.966Z,1009.59
2022-12-04T09:10:09.272Z,1009.48
2022-12-04T09:15:10.692Z,1009.55
2022-12-04T09:20:10.089Z,1009.58
2022-12-04T09:25:11.486Z,1009.64
2022-12-04T09:30:10.999Z,1009.58
2022-12-04T09:35:11.599Z,1009.62
2022-12-04T09:40:11.032Z,1009.69
2022-12-04T09:45:12.429Z,1009.59
2022-12-04T09:50:12.694Z,1009.64
2022-12-04T09:55:14.718Z,1009.66
2022-12-04T10:00:14.246Z,1009.61
2022-12-04T10:05:13.640Z,1009.54
2022-12-04T10:10:15.192Z,1009.44
2022-12-04T10:15:18.744Z,1009.42
2022-12-04T10:20:14.750Z,1009.42
2022-12-04T10:25:15.839Z,1009.27
2022-12-04T10:30:18.053Z,1009.19
2022-12-04T10:35:18.240Z,1009.21
2022-12-04T10:40:18.330Z,1009.09
2022-12-04T10:45:17.457Z,1008.96
2022-12-04T10:50:18.576Z,1008.90
2022-12-04T10:55:38.654Z,1008.97
2022-12-04T11:00:19.807Z,1008.83
2022-12-04T11:05:20.900Z,1008.79
2022-12-04T11:10:23.091Z,1008.84
2022-12-04T11:15:22.264Z,1008.84
2022-12-04T11:20:23.411Z,1008.83
2022-12-04T11:25:24.548Z,1008.76
2022-12-04T11:30:25.941Z,1008.70
2022-12-04T11:35:26.388Z,1008.64
2022-12-04T11:40:26.878Z,1008.68
2022-12-04T11:45:26.138Z,1008.72
2022-12-04T11:50:29.552Z,1008.71
2022-12-04T11:55:29.327Z,1008.82
2022-12-04T12:00:27.177Z,1008.93
2022-12-04T12:05:26.390Z,1008.71
2022-12-04T12:10:27.534Z,1008.58
2022-12-04T12:15:28.721Z,1008.69
2022-12-04T12:20:29.865Z,1008.64
2022-12-04T12:25:32.042Z,1008.67
2022-12-04T12:30:31.411Z,1008.67
2022-12-04T12:35:33.675Z,1008.92
2022-12-04T12:40:32.816Z,1008.86
2022-12-04T12:45:36.675Z,1008.96
2022-12-04T12:50:35.385Z,1009.04
2022-12-04T12:55:37.997Z,1009.05
2022-12-04T13:00:37.463Z,1009.10
2022-12-04T13:05:37.234Z,1009.00
2022-12-04T13:10:38.392Z,1009.04
2022-12-04T13:15:40.535Z,1009.05
2022-12-04T13:20:43.558Z,1008.96
2022-12-04T13:25:40.685Z,1008.95
2022-12-04T13:30:41.941Z,1009.06
2022-12-04T13:35:43.075Z,1009.06
2022-12-04T13:40:44.203Z,1009.03
2022-12-04T13:45:45.380Z,1008.99
2022-12-04T13:50:46.493Z,1009.00
2022-12-04T13:55:47.711Z,1008.90
2022-12-04T14:00:49.942Z,1008.84
2022-12-04T14:05:50.077Z,1008.84
2022-12-04T14:10:49.410Z,1008.76
2022-12-04T14:15:50.034Z,1008.71
2022-12-04T14:20:49.398Z,1008.67
2022-12-04T14:25:50.602Z,1008.68
2022-12-04T14:30:53.047Z,1008.68
2022-12-04T14:35:52.381Z,1008.70
2022-12-04T14:40:53.748Z,1008.75
2022-12-04T14:45:55.282Z,1008.68
2022-12-04T14:50:54.497Z,1008.65
2022-12-04T14:55:55.852Z,1008.70
2022-12-04T15:00:57.340Z,1008.55
2022-12-04T15:05:56.776Z,1008.62
2022-12-04T15:10:58.284Z,1008.64
2022-12-04T15:15:57.712Z,1008.64
2022-12-04T15:20:59.195Z,1008.70
2022-12-04T15:25:58.730Z,1008.71
2022-12-04T15:31:00.203Z,1008.73
2022-12-04T15:35:59.365Z,1008.73
2022-12-04T15:40:58.192Z,1008.73
2022-12-04T15:45:58.399Z,1008.74
2022-12-04T15:50:58.853Z,1008.72
2022-12-04T15:55:58.322Z,1008.61
2022-12-04T16:00:57.783Z,1008.62
2022-12-04T16:05:59.217Z,1008.54
2022-12-04T16:10:58.386Z,1008.71
2022-12-04T16:16:00.487Z,1008.70
2022-12-04T16:20:59.016Z,1008.77
2022-12-04T16:26:00.998Z,1008.70
2022-12-04T16:31:01.269Z,1008.73
2022-12-04T16:36:00.929Z,1008.73
2022-12-04T16:41:00.435Z,1008.75
2022-12-04T16:46:00.597Z,1008.77
2022-12-04T16:51:01.014Z,1008.79
2022-12-04T16:56:00.569Z,1008.83
2022-12-04T17:01:01.019Z,1008.82
2022-12-04T17:06:01.403Z,1008.78
2022-12-04T17:11:00.929Z,1008.88
2022-12-04T17:16:00.392Z,1008.91
2022-12-04T17:21:01.681Z,1008.99
2022-12-04T17:26:03.224Z,1009.11
2022-12-04T17:31:02.745Z,1009.05
2022-12-04T17:36:02.159Z,1009.14
2022-12-04T17:41:05.294Z,1009.06
2022-12-04T17:46:04.635Z,1009.25
2022-12-04T17:51:07.847Z,1009.27
2022-12-04T17:56:08.833Z,1009.29
2022-12-04T18:01:08.062Z,1009.38
2022-12-04T18:06:09.456Z,1009.53
2022-12-04T18:11:08.900Z,1009.54
2022-12-04T18:16:10.572Z,1009.63
2022-12-04T18:21:11.334Z,1009.72
2022-12-04T18:26:11.341Z,1009.76
2022-12-04T18:31:12.429Z,1009.88
2022-12-04T18:36:12.046Z,1009.87
2022-12-04T18:41:11.542Z,1010.03
2022-12-04T18:46:11.103Z,1010.06
2022-12-04T18:51:10.557Z,1010.09
2022-12-04T18:56:13.031Z,1010.07
2022-12-04T19:01:12.575Z,1010.12
2022-12-04T19:06:12.161Z,1010.13
2022-12-04T19:11:11.813Z,1010.13
2022-12-04T19:16:12.171Z,1010.20
2022-12-04T19:21:11.958Z,1010.15
2022-12-04T19:26:13.618Z,1010.24
2022-12-04T19:31:12.583Z,1010.28
2022-12-04T19:36:11.112Z,1010.36
2022-12-04T19:41:12.778Z,1010.39
2022-12-04T19:46:13.415Z,1010.45
2022-12-04T19:51:13.856Z,1010.48
2022-12-04T19:56:13.051Z,1010.57
2022-12-04T20:01:14.384Z,1010.67
2022-12-04T20:06:15.921Z,1010.77
2022-12-04T20:11:17.086Z,1010.73
2022-12-04T20:16:20.810Z,1010.70
2022-12-04T20:21:16.420Z,1010.81
2022-12-04T20:26:20.545Z,1010.86
2022-12-04T20:31:16.834Z,1010.97
2022-12-04T20:36:15.393Z,1010.90
2022-12-04T20:41:16.703Z,1010.95
2022-12-04T20:46:22.314Z,1010.91
2022-12-04T20:51:17.778Z,1010.88
2022-12-04T20:56:19.226Z,1010.88
2022-12-04T21:01:21.864Z,1010.65
2022-12-04T21:06:21.552Z,1010.96
2022-12-04T21:11:22.671Z,1010.77
2022-12-04T21:16:26.948Z,1010.76
2022-12-04T21:21:25.144Z,1010.68
2022-12-04T21:26:24.342Z,1010.86
2022-12-04T21:31:27.689Z,1010.82
2022-12-04T21:36:26.900Z,1010.68
2022-12-04T21:41:28.148Z,1010.68
2022-12-04T21:46:30.281Z,1010.72
2022-12-04T21:51:55.609Z,1010.75
2022-12-04T21:56:30.374Z,1010.71
2022-12-04T22:01:29.540Z,1010.70
2022-12-04T22:06:30.625Z,1010.82
2022-12-04T22:11:31.703Z,1010.77
2022-12-04T22:16:36.920Z,1010.80
2022-12-04T22:21:32.953Z,1010.85
2022-12-04T22:26:34.104Z,1010.91
2022-12-04T22:31:35.242Z,1011.02
2022-12-04T22:36:36.359Z,1011.07
2022-12-04T22:41:37.540Z,1011.13
2022-12-04T22:46:38.784Z,1011.17
2022-12-04T22:51:39.870Z,1011.23
2022-12-04T22:56:41.024Z,1011.19
2022-12-04T23:01:43.141Z,1011.21
2022-12-04T23:06:42.273Z,1011.30
2022-12-04T23:11:43.437Z,1011.32
2022-12-04T23:16:44.710Z,1011.45
2022-12-04T23:21:45.983Z,1011.50
2022-12-04T23:26:47.081Z,1011.56
2022-12-04T23:31:49.316Z,1011.58
2022-12-04T23:36:48.581Z,1011.63
2022-12-04T23:41:49.668Z,1011.88
2022-12-04T23:46:50.790Z,1011.82
2022-12-04T23:51:51.995Z,1012.01
2022-12-04T23:56:53.113Z,1012.18
